sensor_id;sensor_type;location;lat;lon;timestamp;P1;durP1;ratioP1;P2;durP2;ratioP2
49109;SDS011;34921;52.320;16.142;2023-02-13T00:00:55;24.85;;;12.85;;
49109;SDS011;34921;52.320;16.142;2023-02-13T00:03:24;26.52;;;12.23;;
49109;SDS011;34921;52.320;16.142;2023-02-13T00:05:52;24.12;;;11.40;;
49109;SDS011;34921;52.320;16.142;2023-02-13T00:08:20;28.95;;;12.75;;
49109;SDS011;34921;52.320;16.142;2023-02-13T00:10:48;34.50;;;15.80;;
49109;SDS011;34921;52.320;16.142;2023-02-13T00:13:16;37.30;;;15.60;;
49109;SDS011;34921;52.320;16.142;2023-02-13T00:15:44;30.40;;;12.65;;
49109;SDS011;34921;52.320;16.142;2023-02-13T00:18:12;25.68;;;11.95;;
49109;SDS011;34921;52.320;16.142;2023-02-13T00:20:39;25.32;;;11.48;;
49109;SDS011;34921;52.320;16.142;2023-02-13T00:23:07;24.27;;;11.33;;
49109;SDS011;34921;52.320;16.142;2023-02-13T00:25:35;24.65;;;10.90;;
49109;SDS011;34921;52.320;16.142;2023-02-13T00:28:03;23.00;;;10.55;;
49109;SDS011;34921;52.320;16.142;2023-02-13T00:30:31;20.75;;;9.95;;
49109;SDS011;34921;52.320;16.142;2023-02-13T00:32:59;20.23;;;9.90;;
49109;SDS011;34921;52.320;16.142;2023-02-13T00:35:27;21.55;;;10.20;;
49109;SDS011;34921;52.320;16.142;2023-02-13T00:37:55;20.37;;;11.03;;
49109;SDS011;34921;52.320;16.142;2023-02-13T00:40:24;21.12;;;10.48;;
49109;SDS011;34921;52.320;16.142;2023-02-13T00:42:52;22.48;;;10.20;;
49109;SDS011;34921;52.320;16.142;2023-02-13T00:45:20;17.92;;;10.05;;
49109;SDS011;34921;52.320;16.142;2023-02-13T00:47:47;19.32;;;9.53;;
49109;SDS011;34921;52.320;16.142;2023-02-13T00:50:15;21.40;;;9.40;;
49109;SDS011;34921;52.320;16.142;2023-02-13T00:52:43;19.02;;;9.38;;
49109;SDS011;34921;52.320;16.142;2023-02-13T00:55:11;17.75;;;8.35;;
49109;SDS011;34921;52.320;16.142;2023-02-13T00:57:39;16.23;;;8.83;;
49109;SDS011;34921;52.320;16.142;2023-02-13T01:00:07;17.70;;;9.40;;
49109;SDS011;34921;52.320;16.142;2023-02-13T01:02:36;15.65;;;8.88;;
49109;SDS011;34921;52.320;16.142;2023-02-13T01:05:04;15.40;;;9.70;;
49109;SDS011;34921;52.320;16.142;2023-02-13T01:07:32;17.67;;;9.60;;
49109;SDS011;34921;52.320;16.142;2023-02-13T01:10:00;19.05;;;9.55;;
49109;SDS011;34921;52.320;16.142;2023-02-13T01:12:28;17.90;;;9.10;;
49109;SDS011;34921;52.320;16.142;2023-02-13T01:14:55;16.90;;;9.93;;
49109;SDS011;34921;52.320;16.142;2023-02-13T01:17:23;20.75;;;9.40;;
49109;SDS011;34921;52.320;16.142;2023-02-13T01:19:51;17.52;;;9.00;;
49109;SDS011;34921;52.320;16.142;2023-02-13T01:22:19;19.60;;;9.08;;
49109;SDS011;34921;52.320;16.142;2023-02-13T01:24:47;18.37;;;9.73;;
49109;SDS011;34921;52.320;16.142;2023-02-13T01:27:15;14.87;;;8.60;;
49109;SDS011;34921;52.320;16.142;2023-02-13T01:29:43;17.13;;;9.93;;
49109;SDS011;34921;52.320;16.142;2023-02-13T01:32:11;18.47;;;8.83;;
49109;SDS011;34921;52.320;16.142;2023-02-13T01:34:39;15.90;;;10.20;;
49109;SDS011;34921;52.320;16.142;2023-02-13T01:37:07;18.32;;;11.08;;
49109;SDS011;34921;52.320;16.142;2023-02-13T01:39:35;19.37;;;9.55;;
49109;SDS011;34921;52.320;16.142;2023-02-13T01:42:03;17.77;;;10.85;;
49109;SDS011;34921;52.320;16.142;2023-02-13T01:44:45;16.77;;;9.75;;
49109;SDS011;34921;52.320;16.142;2023-02-13T01:53:15;16.02;;;10.05;;
49109;SDS011;34921;52.320;16.142;2023-02-13T01:55:50;19.02;;;11.03;;
49109;SDS011;34921;52.320;16.142;2023-02-13T01:58:21;19.00;;;11.90;;
49109;SDS011;34921;52.320;16.142;2023-02-13T02:00:52;25.27;;;12.82;;
49109;SDS011;34921;52.320;16.142;2023-02-13T02:03:28;21.70;;;11.78;;
49109;SDS011;34921;52.320;16.142;2023-02-13T02:05:58;16.30;;;10.70;;
49109;SDS011;34921;52.320;16.142;2023-02-13T02:08:27;19.37;;;10.30;;
49109;SDS011;34921;52.320;16.142;2023-02-13T02:10:56;19.47;;;10.67;;
49109;SDS011;34921;52.320;16.142;2023-02-13T02:13:26;17.62;;;11.12;;
49109;SDS011;34921;52.320;16.142;2023-02-13T02:15:54;20.48;;;12.37;;
49109;SDS011;34921;52.320;16.142;2023-02-13T02:18:23;20.08;;;12.73;;
49109;SDS011;34921;52.320;16.142;2023-02-13T02:29:05;14.40;;;8.93;;
49109;SDS011;34921;52.320;16.142;2023-02-13T02:37:57;14.53;;;9.38;;
49109;SDS011;34921;52.320;16.142;2023-02-13T02:40:45;13.93;;;8.40;;
49109;SDS011;34921;52.320;16.142;2023-02-13T02:46:29;12.30;;;7.40;;
49109;SDS011;34921;52.320;16.142;2023-02-13T02:54:37;13.10;;;9.05;;
49109;SDS011;34921;52.320;16.142;2023-02-13T02:57:31;15.25;;;8.53;;
49109;SDS011;34921;52.320;16.142;2023-02-13T03:00:20;16.07;;;10.88;;
49109;SDS011;34921;52.320;16.142;2023-02-13T03:03:22;15.33;;;9.07;;
49109;SDS011;34921;52.320;16.142;2023-02-13T03:06:14;17.73;;;10.40;;
49109;SDS011;34921;52.320;16.142;2023-02-13T03:08:45;13.90;;;8.98;;
49109;SDS011;34921;52.320;16.142;2023-02-13T03:11:40;17.10;;;8.93;;
49109;SDS011;34921;52.320;16.142;2023-02-13T03:14:27;16.25;;;9.88;;
49109;SDS011;34921;52.320;16.142;2023-02-13T03:16:55;15.32;;;9.33;;
49109;SDS011;34921;52.320;16.142;2023-02-13T03:30:57;22.17;;;9.70;;
49109;SDS011;34921;52.320;16.142;2023-02-13T03:39:17;15.03;;;8.10;;
49109;SDS011;34921;52.320;16.142;2023-02-13T03:44:56;14.75;;;7.10;;
49109;SDS011;34921;52.320;16.142;2023-02-13T03:47:45;12.27;;;6.63;;
49109;SDS011;34921;52.320;16.142;2023-02-13T03:52:45;11.78;;;6.45;;
49109;SDS011;34921;52.320;16.142;2023-02-13T03:55:15;12.07;;;6.90;;
49109;SDS011;34921;52.320;16.142;2023-02-13T03:58:08;10.07;;;6.73;;
49109;SDS011;34921;52.320;16.142;2023-02-13T04:01:15;10.08;;;6.78;;
49109;SDS011;34921;52.320;16.142;2023-02-13T04:03:53;14.77;;;8.60;;
49109;SDS011;34921;52.320;16.142;2023-02-13T04:06:31;17.92;;;11.15;;
49109;SDS011;34921;52.320;16.142;2023-02-13T04:09:03;17.10;;;10.60;;
49109;SDS011;34921;52.320;16.142;2023-02-13T04:11:34;15.65;;;10.58;;
49109;SDS011;34921;52.320;16.142;2023-02-13T04:14:07;15.78;;;10.80;;
49109;SDS011;34921;52.320;16.142;2023-02-13T04:19:16;16.02;;;9.58;;
49109;SDS011;34921;52.320;16.142;2023-02-13T04:21:44;14.55;;;8.48;;
49109;SDS011;34921;52.320;16.142;2023-02-13T04:24:17;12.90;;;7.55;;
49109;SDS011;34921;52.320;16.142;2023-02-13T04:26:44;12.82;;;7.70;;
49109;SDS011;34921;52.320;16.142;2023-02-13T04:29:13;11.73;;;7.20;;
49109;SDS011;34921;52.320;16.142;2023-02-13T04:31:40;15.25;;;9.38;;
49109;SDS011;34921;52.320;16.142;2023-02-13T04:34:08;12.93;;;7.83;;
49109;SDS011;34921;52.320;16.142;2023-02-13T04:36:36;12.13;;;7.28;;
49109;SDS011;34921;52.320;16.142;2023-02-13T04:39:04;14.00;;;7.35;;
49109;SDS011;34921;52.320;16.142;2023-02-13T04:41:32;13.00;;;7.53;;
49109;SDS011;34921;52.320;16.142;2023-02-13T04:44:00;14.30;;;9.58;;
49109;SDS011;34921;52.320;16.142;2023-02-13T04:46:28;13.03;;;8.25;;
49109;SDS011;34921;52.320;16.142;2023-02-13T04:48:56;11.50;;;7.03;;
49109;SDS011;34921;52.320;16.142;2023-02-13T04:51:24;11.40;;;7.40;;
49109;SDS011;34921;52.320;16.142;2023-02-13T04:53:52;10.80;;;7.05;;
49109;SDS011;34921;52.320;16.142;2023-02-13T04:56:20;9.33;;;6.45;;
49109;SDS011;34921;52.320;16.142;2023-02-13T04:58:47;9.87;;;7.00;;
49109;SDS011;34921;52.320;16.142;2023-02-13T05:01:16;9.73;;;6.30;;
49109;SDS011;34921;52.320;16.142;2023-02-13T05:03:44;11.90;;;7.40;;
49109;SDS011;34921;52.320;16.142;2023-02-13T05:06:12;13.05;;;8.30;;
49109;SDS011;34921;52.320;16.142;2023-02-13T05:08:41;11.80;;;7.30;;
49109;SDS011;34921;52.320;16.142;2023-02-13T05:11:08;11.18;;;6.37;;
49109;SDS011;34921;52.320;16.142;2023-02-13T05:13:36;10.93;;;6.60;;
49109;SDS011;34921;52.320;16.142;2023-02-13T05:16:04;11.38;;;6.53;;
49109;SDS011;34921;52.320;16.142;2023-02-13T05:18:32;10.80;;;6.10;;
49109;SDS011;34921;52.320;16.142;2023-02-13T05:21:00;10.75;;;7.17;;
49109;SDS011;34921;52.320;16.142;2023-02-13T05:23:47;10.82;;;7.20;;
49109;SDS011;34921;52.320;16.142;2023-02-13T05:26:15;11.68;;;7.28;;
49109;SDS011;34921;52.320;16.142;2023-02-13T05:28:43;11.45;;;7.65;;
49109;SDS011;34921;52.320;16.142;2023-02-13T05:31:29;13.30;;;8.00;;
49109;SDS011;34921;52.320;16.142;2023-02-13T05:33:57;13.60;;;9.00;;
49109;SDS011;34921;52.320;16.142;2023-02-13T05:36:25;11.35;;;7.62;;
49109;SDS011;34921;52.320;16.142;2023-02-13T05:38:53;10.88;;;7.08;;
49109;SDS011;34921;52.320;16.142;2023-02-13T05:41:21;12.30;;;7.22;;
49109;SDS011;34921;52.320;16.142;2023-02-13T05:43:49;11.55;;;7.08;;
49109;SDS011;34921;52.320;16.142;2023-02-13T05:46:17;11.05;;;7.05;;
49109;SDS011;34921;52.320;16.142;2023-02-13T05:48:45;9.73;;;6.67;;
49109;SDS011;34921;52.320;16.142;2023-02-13T05:51:12;10.25;;;6.72;;
49109;SDS011;34921;52.320;16.142;2023-02-13T05:53:40;12.18;;;8.08;;
49109;SDS011;34921;52.320;16.142;2023-02-13T05:56:08;13.18;;;8.40;;
49109;SDS011;34921;52.320;16.142;2023-02-13T05:58:36;12.15;;;6.80;;
49109;SDS011;34921;52.320;16.142;2023-02-13T06:01:04;16.17;;;9.85;;
49109;SDS011;34921;52.320;16.142;2023-02-13T06:03:32;12.53;;;8.30;;
49109;SDS011;34921;52.320;16.142;2023-02-13T06:06:00;11.93;;;7.60;;
49109;SDS011;34921;52.320;16.142;2023-02-13T06:08:29;12.33;;;7.87;;
49109;SDS011;34921;52.320;16.142;2023-02-13T06:10:57;10.68;;;7.55;;
49109;SDS011;34921;52.320;16.142;2023-02-13T06:13:25;11.38;;;7.62;;
49109;SDS011;34921;52.320;16.142;2023-02-13T06:15:53;11.08;;;7.17;;
49109;SDS011;34921;52.320;16.142;2023-02-13T06:18:21;9.63;;;7.05;;
49109;SDS011;34921;52.320;16.142;2023-02-13T06:20:50;13.65;;;9.50;;
49109;SDS011;34921;52.320;16.142;2023-02-13T06:23:18;13.95;;;9.15;;
49109;SDS011;34921;52.320;16.142;2023-02-13T06:25:46;21.73;;;12.60;;
49109;SDS011;34921;52.320;16.142;2023-02-13T06:28:13;30.33;;;17.97;;
49109;SDS011;34921;52.320;16.142;2023-02-13T06:30:41;21.12;;;13.20;;
49109;SDS011;34921;52.320;16.142;2023-02-13T06:33:09;18.55;;;12.73;;
49109;SDS011;34921;52.320;16.142;2023-02-13T06:35:37;23.83;;;14.93;;
49109;SDS011;34921;52.320;16.142;2023-02-13T06:38:05;20.17;;;14.63;;
49109;SDS011;34921;52.320;16.142;2023-02-13T06:40:33;19.35;;;12.63;;
49109;SDS011;34921;52.320;16.142;2023-02-13T06:43:01;17.25;;;12.25;;
49109;SDS011;34921;52.320;16.142;2023-02-13T06:45:29;13.22;;;9.18;;
49109;SDS011;34921;52.320;16.142;2023-02-13T06:47:57;14.20;;;8.58;;
49109;SDS011;34921;52.320;16.142;2023-02-13T06:50:25;10.40;;;8.10;;
49109;SDS011;34921;52.320;16.142;2023-02-13T06:52:53;14.87;;;10.82;;
49109;SDS011;34921;52.320;16.142;2023-02-13T06:55:21;18.70;;;16.57;;
49109;SDS011;34921;52.320;16.142;2023-02-13T06:57:49;41.13;;;23.35;;
49109;SDS011;34921;52.320;16.142;2023-02-13T07:00:17;43.28;;;25.02;;
49109;SDS011;34921;52.320;16.142;2023-02-13T07:02:46;33.15;;;16.05;;
49109;SDS011;34921;52.320;16.142;2023-02-13T07:05:14;38.23;;;18.63;;
49109;SDS011;34921;52.320;16.142;2023-02-13T07:07:42;41.65;;;21.15;;
49109;SDS011;34921;52.320;16.142;2023-02-13T07:10:11;77.67;;;46.02;;
49109;SDS011;34921;52.320;16.142;2023-02-13T07:12:40;59.73;;;30.62;;
49109;SDS011;34921;52.320;16.142;2023-02-13T07:15:08;91.50;;;34.98;;
49109;SDS011;34921;52.320;16.142;2023-02-13T07:17:37;85.60;;;33.02;;
49109;SDS011;34921;52.320;16.142;2023-02-13T07:20:05;57.70;;;24.18;;
49109;SDS011;34921;52.320;16.142;2023-02-13T07:22:33;52.70;;;20.85;;
49109;SDS011;34921;52.320;16.142;2023-02-13T07:25:01;33.23;;;15.40;;
49109;SDS011;34921;52.320;16.142;2023-02-13T07:27:30;33.50;;;15.50;;
49109;SDS011;34921;52.320;16.142;2023-02-13T07:29:58;26.25;;;15.45;;
49109;SDS011;34921;52.320;16.142;2023-02-13T07:32:26;20.90;;;15.78;;
49109;SDS011;34921;52.320;16.142;2023-02-13T07:34:54;18.55;;;12.88;;
49109;SDS011;34921;52.320;16.142;2023-02-13T07:37:22;27.37;;;15.75;;
49109;SDS011;34921;52.320;16.142;2023-02-13T07:39:50;30.70;;;15.90;;
49109;SDS011;34921;52.320;16.142;2023-02-13T07:42:17;21.37;;;11.85;;
49109;SDS011;34921;52.320;16.142;2023-02-13T07:44:45;19.05;;;11.70;;
49109;SDS011;34921;52.320;16.142;2023-02-13T07:47:14;21.02;;;11.95;;
49109;SDS011;34921;52.320;16.142;2023-02-13T07:49:41;17.15;;;10.80;;
49109;SDS011;34921;52.320;16.142;2023-02-13T07:52:11;27.55;;;15.32;;
49109;SDS011;34921;52.320;16.142;2023-02-13T07:54:39;23.07;;;12.03;;
49109;SDS011;34921;52.320;16.142;2023-02-13T07:57:14;24.63;;;12.10;;
49109;SDS011;34921;52.320;16.142;2023-02-13T07:59:42;20.57;;;11.90;;
49109;SDS011;34921;52.320;16.142;2023-02-13T08:02:11;41.25;;;20.15;;
49109;SDS011;34921;52.320;16.142;2023-02-13T08:04:42;37.70;;;18.77;;
49109;SDS011;34921;52.320;16.142;2023-02-13T08:07:14;36.40;;;18.17;;
49109;SDS011;34921;52.320;16.142;2023-02-13T08:09:44;26.02;;;14.05;;
49109;SDS011;34921;52.320;16.142;2023-02-13T08:12:31;24.07;;;11.75;;
49109;SDS011;34921;52.320;16.142;2023-02-13T08:15:00;18.15;;;10.50;;
49109;SDS011;34921;52.320;16.142;2023-02-13T08:17:28;26.30;;;12.53;;
49109;SDS011;34921;52.320;16.142;2023-02-13T08:19:57;24.30;;;12.90;;
49109;SDS011;34921;52.320;16.142;2023-02-13T08:22:25;47.35;;;32.70;;
49109;SDS011;34921;52.320;16.142;2023-02-13T08:24:53;33.75;;;24.67;;
49109;SDS011;34921;52.320;16.142;2023-02-13T08:27:21;59.00;;;43.73;;
49109;SDS011;34921;52.320;16.142;2023-02-13T08:29:49;52.90;;;39.18;;
49109;SDS011;34921;52.320;16.142;2023-02-13T08:32:17;28.80;;;23.70;;
49109;SDS011;34921;52.320;16.142;2023-02-13T08:34:45;19.32;;;13.93;;
49109;SDS011;34921;52.320;16.142;2023-02-13T08:37:13;11.38;;;8.23;;
49109;SDS011;34921;52.320;16.142;2023-02-13T08:39:41;14.47;;;8.68;;
49109;SDS011;34921;52.320;16.142;2023-02-13T08:42:09;33.78;;;20.23;;
49109;SDS011;34921;52.320;16.142;2023-02-13T08:44:37;36.58;;;17.17;;
49109;SDS011;34921;52.320;16.142;2023-02-13T08:47:07;29.67;;;13.27;;
49109;SDS011;34921;52.320;16.142;2023-02-13T08:49:36;22.90;;;11.08;;
49109;SDS011;34921;52.320;16.142;2023-02-13T08:52:04;20.80;;;9.80;;
49109;SDS011;34921;52.320;16.142;2023-02-13T08:54:33;16.93;;;9.48;;
49109;SDS011;34921;52.320;16.142;2023-02-13T08:57:02;25.97;;;14.65;;
49109;SDS011;34921;52.320;16.142;2023-02-13T08:59:31;25.45;;;16.45;;
49109;SDS011;34921;52.320;16.142;2023-02-13T09:01:59;20.92;;;12.13;;
49109;SDS011;34921;52.320;16.142;2023-02-13T09:04:27;17.98;;;9.55;;
49109;SDS011;34921;52.320;16.142;2023-02-13T09:06:55;23.02;;;12.05;;
49109;SDS011;34921;52.320;16.142;2023-02-13T09:09:23;20.68;;;11.95;;
49109;SDS011;34921;52.320;16.142;2023-02-13T09:11:51;27.52;;;15.45;;
49109;SDS011;34921;52.320;16.142;2023-02-13T09:14:20;36.00;;;18.70;;
49109;SDS011;34921;52.320;16.142;2023-02-13T09:16:48;30.27;;;13.95;;
49109;SDS011;34921;52.320;16.142;2023-02-13T09:19:16;27.13;;;11.93;;
49109;SDS011;34921;52.320;16.142;2023-02-13T09:21:44;61.88;;;29.92;;
49109;SDS011;34921;52.320;16.142;2023-02-13T09:24:12;146.90;;;79.70;;
49109;SDS011;34921;52.320;16.142;2023-02-13T09:26:39;146.40;;;75.72;;
49109;SDS011;34921;52.320;16.142;2023-02-13T09:29:07;98.55;;;52.35;;
49109;SDS011;34921;52.320;16.142;2023-02-13T09:31:35;95.30;;;50.97;;
49109;SDS011;34921;52.320;16.142;2023-02-13T09:34:03;39.05;;;20.85;;
49109;SDS011;34921;52.320;16.142;2023-02-13T09:36:31;35.10;;;21.55;;
49109;SDS011;34921;52.320;16.142;2023-02-13T09:38:59;34.80;;;20.23;;
49109;SDS011;34921;52.320;16.142;2023-02-13T09:41:28;57.03;;;39.20;;
49109;SDS011;34921;52.320;16.142;2023-02-13T09:43:57;49.37;;;37.20;;
49109;SDS011;34921;52.320;16.142;2023-02-13T09:46:28;32.50;;;22.85;;
49109;SDS011;34921;52.320;16.142;2023-02-13T09:49:04;116.10;;;103.17;;
49109;SDS011;34921;52.320;16.142;2023-02-13T09:51:35;245.60;;;180.00;;
49109;SDS011;34921;52.320;16.142;2023-02-13T09:54:07;177.85;;;115.17;;
49109;SDS011;34921;52.320;16.142;2023-02-13T10:18:50;69.22;;;38.50;;
49109;SDS011;34921;52.320;16.142;2023-02-13T10:21:21;42.70;;;20.03;;
49109;SDS011;34921;52.320;16.142;2023-02-13T10:24:17;47.20;;;30.83;;
49109;SDS011;34921;52.320;16.142;2023-02-13T10:26:46;38.90;;;24.53;;
49109;SDS011;34921;52.320;16.142;2023-02-13T10:32:04;42.17;;;19.30;;
49109;SDS011;34921;52.320;16.142;2023-02-13T10:34:42;27.85;;;16.67;;
49109;SDS011;34921;52.320;16.142;2023-02-13T10:37:13;20.80;;;12.40;;
49109;SDS011;34921;52.320;16.142;2023-02-13T10:39:49;21.50;;;9.90;;
49109;SDS011;34921;52.320;16.142;2023-02-13T10:50:25;19.37;;;10.05;;
49109;SDS011;34921;52.320;16.142;2023-02-13T10:58:23;21.75;;;11.20;;
49109;SDS011;34921;52.320;16.142;2023-02-13T11:00:54;18.20;;;11.97;;
49109;SDS011;34921;52.320;16.142;2023-02-13T11:03:29;58.42;;;26.00;;
49109;SDS011;34921;52.320;16.142;2023-02-13T11:05:57;68.52;;;26.77;;
49109;SDS011;34921;52.320;16.142;2023-02-13T11:08:48;43.17;;;14.45;;
49109;SDS011;34921;52.320;16.142;2023-02-13T11:11:28;38.10;;;14.05;;
49109;SDS011;34921;52.320;16.142;2023-02-13T11:14:10;28.30;;;13.15;;
49109;SDS011;34921;52.320;16.142;2023-02-13T11:16:52;28.90;;;13.90;;
49109;SDS011;34921;52.320;16.142;2023-02-13T11:19:38;19.52;;;10.65;;
49109;SDS011;34921;52.320;16.142;2023-02-13T11:22:14;21.07;;;11.22;;
49109;SDS011;34921;52.320;16.142;2023-02-13T11:25:06;22.10;;;11.73;;
49109;SDS011;34921;52.320;16.142;2023-02-13T11:27:44;16.32;;;9.93;;
49109;SDS011;34921;52.320;16.142;2023-02-13T11:33:00;16.93;;;10.58;;
49109;SDS011;34921;52.320;16.142;2023-02-13T11:35:34;15.35;;;8.40;;
49109;SDS011;34921;52.320;16.142;2023-02-13T11:40:37;15.60;;;8.83;;
49109;SDS011;34921;52.320;16.142;2023-02-13T11:43:05;11.05;;;6.47;;
49109;SDS011;34921;52.320;16.142;2023-02-13T11:45:34;12.30;;;7.30;;
49109;SDS011;34921;52.320;16.142;2023-02-13T11:48:02;12.15;;;6.95;;
49109;SDS011;34921;52.320;16.142;2023-02-13T11:50:36;15.20;;;7.03;;
49109;SDS011;34921;52.320;16.142;2023-02-13T11:53:08;12.00;;;7.25;;
49109;SDS011;34921;52.320;16.142;2023-02-13T11:56:03;10.35;;;6.45;;
49109;SDS011;34921;52.320;16.142;2023-02-13T11:58:34;100.18;;;46.83;;
49109;SDS011;34921;52.320;16.142;2023-02-13T12:04:05;54.42;;;33.15;;
49109;SDS011;34921;52.320;16.142;2023-02-13T12:06:34;31.77;;;20.40;;
49109;SDS011;34921;52.320;16.142;2023-02-13T12:09:10;16.45;;;9.48;;
49109;SDS011;34921;52.320;16.142;2023-02-13T12:11:45;12.35;;;8.03;;
49109;SDS011;34921;52.320;16.142;2023-02-13T12:14:17;12.55;;;7.95;;
49109;SDS011;34921;52.320;16.142;2023-02-13T12:19:42;26.73;;;16.40;;
49109;SDS011;34921;52.320;16.142;2023-02-13T12:46:17;82.67;;;41.37;;
49109;SDS011;34921;52.320;16.142;2023-02-13T12:49:05;21.05;;;11.10;;
49109;SDS011;34921;52.320;16.142;2023-02-13T12:57:51;106.10;;;44.85;;
49109;SDS011;34921;52.320;16.142;2023-02-13T13:00:28;292.23;;;133.93;;
49109;SDS011;34921;52.320;16.142;2023-02-13T13:08:44;91.43;;;42.37;;
49109;SDS011;34921;52.320;16.142;2023-02-13T13:16:54;36.80;;;14.45;;
49109;SDS011;34921;52.320;16.142;2023-02-13T13:19:48;13.70;;;7.67;;
49109;SDS011;34921;52.320;16.142;2023-02-13T13:28:23;26.87;;;12.80;;
49109;SDS011;34921;52.320;16.142;2023-02-13T13:30:53;27.98;;;13.10;;
49109;SDS011;34921;52.320;16.142;2023-02-13T13:33:22;16.80;;;8.50;;
49109;SDS011;34921;52.320;16.142;2023-02-13T13:49:28;24.50;;;9.35;;
49109;SDS011;34921;52.320;16.142;2023-02-13T13:54:48;14.20;;;8.15;;
49109;SDS011;34921;52.320;16.142;2023-02-13T14:02:41;15.55;;;8.13;;
49109;SDS011;34921;52.320;16.142;2023-02-13T14:05:26;42.98;;;18.62;;
49109;SDS011;34921;52.320;16.142;2023-02-13T14:08:03;26.13;;;14.33;;
49109;SDS011;34921;52.320;16.142;2023-02-13T14:16:59;13.22;;;7.60;;
49109;SDS011;34921;52.320;16.142;2023-02-13T14:19:33;14.55;;;9.35;;
49109;SDS011;34921;52.320;16.142;2023-02-13T14:24:52;52.62;;;17.90;;
49109;SDS011;34921;52.320;16.142;2023-02-13T14:27:22;18.67;;;10.67;;
49109;SDS011;34921;52.320;16.142;2023-02-13T14:30:05;63.30;;;34.00;;
49109;SDS011;34921;52.320;16.142;2023-02-13T14:32:51;31.80;;;16.60;;
49109;SDS011;34921;52.320;16.142;2023-02-13T14:35:22;25.87;;;14.77;;
49109;SDS011;34921;52.320;16.142;2023-02-13T14:42:56;21.70;;;13.77;;
49109;SDS011;34921;52.320;16.142;2023-02-13T14:45:34;16.27;;;11.38;;
49109;SDS011;34921;52.320;16.142;2023-02-13T14:50:53;15.20;;;9.40;;
49109;SDS011;34921;52.320;16.142;2023-02-13T14:56:12;14.33;;;7.95;;
49109;SDS011;34921;52.320;16.142;2023-02-13T14:58:47;23.75;;;12.37;;
49109;SDS011;34921;52.320;16.142;2023-02-13T15:04:00;15.90;;;9.97;;
49109;SDS011;34921;52.320;16.142;2023-02-13T15:06:37;13.17;;;8.47;;
49109;SDS011;34921;52.320;16.142;2023-02-13T15:09:16;13.27;;;7.60;;
49109;SDS011;34921;52.320;16.142;2023-02-13T15:11:46;15.97;;;8.63;;
49109;SDS011;34921;52.320;16.142;2023-02-13T15:14:21;11.93;;;7.30;;
49109;SDS011;34921;52.320;16.142;2023-02-13T15:19:38;28.00;;;14.03;;
49109;SDS011;34921;52.320;16.142;2023-02-13T15:22:25;59.85;;;29.40;;
49109;SDS011;34921;52.320;16.142;2023-02-13T15:24:57;46.75;;;23.52;;
49109;SDS011;34921;52.320;16.142;2023-02-13T15:27:27;23.85;;;12.13;;
49109;SDS011;34921;52.320;16.142;2023-02-13T15:32:32;20.85;;;14.30;;
49109;SDS011;34921;52.320;16.142;2023-02-13T15:37:53;13.00;;;8.55;;
49109;SDS011;34921;52.320;16.142;2023-02-13T15:40:29;10.40;;;6.72;;
49109;SDS011;34921;52.320;16.142;2023-02-13T15:43:00;12.50;;;7.12;;
49109;SDS011;34921;52.320;16.142;2023-02-13T15:45:28;25.45;;;12.13;;
49109;SDS011;34921;52.320;16.142;2023-02-13T15:47:57;26.43;;;13.40;;
49109;SDS011;34921;52.320;16.142;2023-02-13T15:50:28;16.30;;;9.55;;
49109;SDS011;34921;52.320;16.142;2023-02-13T15:53:02;20.70;;;12.28;;
49109;SDS011;34921;52.320;16.142;2023-02-13T15:55:32;42.85;;;24.27;;
49109;SDS011;34921;52.320;16.142;2023-02-13T15:58:03;31.62;;;16.75;;
49109;SDS011;34921;52.320;16.142;2023-02-13T16:00:32;19.23;;;11.57;;
49109;SDS011;34921;52.320;16.142;2023-02-13T16:03:03;16.10;;;10.13;;
49109;SDS011;34921;52.320;16.142;2023-02-13T16:05:36;17.13;;;10.40;;
49109;SDS011;34921;52.320;16.142;2023-02-13T16:08:27;15.30;;;8.98;;
49109;SDS011;34921;52.320;16.142;2023-02-13T16:16:30;42.17;;;21.93;;
49109;SDS011;34921;52.320;16.142;2023-02-13T16:22:06;48.90;;;26.23;;
49109;SDS011;34921;52.320;16.142;2023-02-13T16:24:45;24.82;;;14.87;;
49109;SDS011;34921;52.320;16.142;2023-02-13T16:27:16;21.07;;;12.98;;
49109;SDS011;34921;52.320;16.142;2023-02-13T16:29:49;18.35;;;11.18;;
49109;SDS011;34921;52.320;16.142;2023-02-13T16:32:31;18.73;;;10.10;;
49109;SDS011;34921;52.320;16.142;2023-02-13T16:37:51;18.95;;;10.48;;
49109;SDS011;34921;52.320;16.142;2023-02-13T16:40:39;16.70;;;10.78;;
49109;SDS011;34921;52.320;16.142;2023-02-13T16:51:28;21.17;;;13.40;;
49109;SDS011;34921;52.320;16.142;2023-02-13T16:54:15;15.90;;;9.40;;
49109;SDS011;34921;52.320;16.142;2023-02-13T16:56:47;15.80;;;8.83;;
49109;SDS011;34921;52.320;16.142;2023-02-13T17:04:35;21.02;;;11.60;;
49109;SDS011;34921;52.320;16.142;2023-02-13T17:07:16;27.80;;;14.90;;
49109;SDS011;34921;52.320;16.142;2023-02-13T17:09:50;60.80;;;27.05;;
49109;SDS011;34921;52.320;16.142;2023-02-13T17:12:23;55.12;;;24.07;;
49109;SDS011;34921;52.320;16.142;2023-02-13T17:14:51;58.52;;;27.73;;
49109;SDS011;34921;52.320;16.142;2023-02-13T17:17:20;47.88;;;22.85;;
49109;SDS011;34921;52.320;16.142;2023-02-13T17:19:49;51.20;;;24.18;;
49109;SDS011;34921;52.320;16.142;2023-02-13T17:22:26;69.58;;;28.70;;
49109;SDS011;34921;52.320;16.142;2023-02-13T17:24:57;38.83;;;18.67;;
49109;SDS011;34921;52.320;16.142;2023-02-13T17:27:26;28.23;;;15.15;;
49109;SDS011;34921;52.320;16.142;2023-02-13T17:29:54;32.48;;;17.85;;
49109;SDS011;34921;52.320;16.142;2023-02-13T17:32:22;44.50;;;26.40;;
49109;SDS011;34921;52.320;16.142;2023-02-13T17:34:52;41.63;;;26.90;;
49109;SDS011;34921;52.320;16.142;2023-02-13T17:37:24;24.77;;;14.70;;
49109;SDS011;34921;52.320;16.142;2023-02-13T17:39:54;23.13;;;12.73;;
49109;SDS011;34921;52.320;16.142;2023-02-13T17:42:23;24.75;;;13.58;;
49109;SDS011;34921;52.320;16.142;2023-02-13T17:44:54;19.12;;;12.00;;
49109;SDS011;34921;52.320;16.142;2023-02-13T17:49:52;22.03;;;12.33;;
49109;SDS011;34921;52.320;16.142;2023-02-13T17:52:21;22.17;;;13.00;;
49109;SDS011;34921;52.320;16.142;2023-02-13T17:54:52;16.70;;;10.65;;
49109;SDS011;34921;52.320;16.142;2023-02-13T17:57:20;17.48;;;9.78;;
49109;SDS011;34921;52.320;16.142;2023-02-13T17:59:48;23.17;;;11.73;;
49109;SDS011;34921;52.320;16.142;2023-02-13T18:02:18;21.60;;;12.85;;
49109;SDS011;34921;52.320;16.142;2023-02-13T18:04:47;20.20;;;12.93;;
49109;SDS011;34921;52.320;16.142;2023-02-13T18:07:17;15.55;;;10.10;;
49109;SDS011;34921;52.320;16.142;2023-02-13T18:09:49;19.48;;;11.10;;
49109;SDS011;34921;52.320;16.142;2023-02-13T18:12:19;17.00;;;10.15;;
49109;SDS011;34921;52.320;16.142;2023-02-13T18:14:49;16.37;;;9.53;;
49109;SDS011;34921;52.320;16.142;2023-02-13T18:17:18;14.47;;;8.65;;
49109;SDS011;34921;52.320;16.142;2023-02-13T18:19:47;15.55;;;9.20;;
49109;SDS011;34921;52.320;16.142;2023-02-13T18:22:17;16.05;;;9.58;;
49109;SDS011;34921;52.320;16.142;2023-02-13T18:24:45;17.27;;;10.58;;
49109;SDS011;34921;52.320;16.142;2023-02-13T18:27:13;17.77;;;10.73;;
49109;SDS011;34921;52.320;16.142;2023-02-13T18:29:41;16.23;;;10.20;;